Alto, Michigan
Current Conditions -  °F | °C
As of 5:53 PM on Wednesday 26 Nov 2014 (Local Time) from KGRR Reporting Station
Overcast Overcast  
Wind Chill: -6°   Ceiling: 3700
Heat Index: -2°   Visibility: 10mi
Dew Point: -7°   Wind: 7mph
Humidity: 69%   Direction: 50°NE
Pressure: 30.12"   Gusts: NA
Location:  42.86°N, 85.38°W
Report Text: KGRR 262253Z 05006KT 10SM OVC037 M02/M07 A3012 RMK AO2 SLP209 T10171067
Loading
Personal Weather Stations






























Interactive Weather Map New forecast layout! Learn more

10-Day Weather Forecast

Advertisements
Track Severe Weather on mobile